Sanford, Florida
Current Conditions -  °F | °C
As of 4:53 PM on Sunday 21 Dec 2014 (Local Time) from KSFB Reporting Station
Overcast Overcast  
Wind Chill: 76°   Ceiling: 5500
Heat Index: 76°   Visibility: 10mi
Dew Point: 62°   Wind: 6mph
Humidity: 62%   Direction: 240°WSW
Pressure: 30.03"   Gusts: NA
Location:  28.81°N, 81.27°W
Report Text: KSFB 212153Z 24005KT 10SM BKN055 OVC070 24/17 A3003 RMK AO2 SLP166 T02440167
Loading
Personal Weather Stations






























Interactive Weather Map New forecast layout! Learn more

10-Day Weather Forecast

Advertisements
Track Severe Weather on mobile